Time;durP1;ratioP1;P1;durP2;ratioP2;P2;SDS_P1;SDS_P2;PMS_P1;PMS_P2;Temp;Humidity;BMP_temperature;BMP_pressure;BME280_temperature;BME280_humidity;BME280_pressure;Samples;Min_cycle;Max_cycle;Signal;HPM_P1;HPM_P2
2022/06/06 00:00:20;;;;;;;3.28;1.02;;;15.70;73.70;;;;;;4979400;28;96502;-44
2022/06/06 00:02:51;;;;;;;5.70;1.60;;;15.70;73.70;;;;;;4986527;28;96396;-44
2022/06/06 00:05:22;;;;;;;5.07;1.50;;;15.80;73.70;;;;;;4988257;28;96511;-46
2022/06/06 00:07:53;;;;;;;3.42;0.98;;;15.90;73.70;;;;;;4987337;28;95461;-44
2022/06/06 00:10:25;;;;;;;3.42;1.30;;;15.90;73.40;;;;;;4983510;28;95826;-44
2022/06/06 00:12:57;;;;;;;2.35;1.08;;;15.90;73.40;;;;;;4984068;28;95965;-45
2022/06/06 00:15:32;;;;;;;2.83;1.05;;;16.00;73.40;;;;;;4976632;28;96893;-44
2022/06/06 00:18:05;;;;;;;3.10;1.40;;;16.00;73.30;;;;;;4984973;28;95916;-44
2022/06/06 00:20:37;;;;;;;2.50;1.10;;;16.00;73.10;;;;;;4986411;28;95849;-44
2022/06/06 00:23:09;;;;;;;1.20;1.05;;;16.10;72.90;;;;;;4983736;28;95649;-44
2022/06/06 00:25:40;;;;;;;;;;;16.20;72.90;;;;;;4985424;28;95888;-44
2022/06/06 00:28:11;;;;;;;7.93;1.45;;;16.20;72.70;;;;;;4985581;28;95308;-46
2022/06/06 00:30:44;;;;;;;2.28;1.20;;;16.20;72.40;;;;;;4977077;28;97529;-44
2022/06/06 00:36:04;;;;;;;1.75;1.13;;;16.20;72.20;;;;;;4979156;28;95813;-45
2022/06/06 00:38:36;;;;;;;;;;;16.20;72.10;;;;;;4980561;28;95334;-45
2022/06/06 00:41:08;;;;;;;2.83;0.98;;;16.30;72.20;;;;;;4987240;28;95778;-45
2022/06/06 00:43:41;;;;;;;1.60;0.77;;;16.30;72.30;;;;;;4987967;28;95924;-44
2022/06/06 00:46:12;;;;;;;1.90;0.98;;;16.40;72.40;;;;;;4974948;28;96789;-44
2022/06/06 00:48:47;;;;;;;1.52;0.93;;;16.40;72.50;;;;;;4985648;28;96268;-45
2022/06/06 00:51:18;;;;;;;2.03;0.85;;;16.50;72.50;;;;;;4985241;28;95955;-46
2022/06/06 00:53:59;;;;;;;1.33;1.23;;;16.50;72.40;;;;;;4987748;28;95378;-48
2022/06/06 00:56:30;;;;;;;3.92;1.40;;;16.50;72.50;;;;;;4986693;28;96649;-44
2022/06/06 00:59:10;;;;;;;1.55;0.80;;;16.60;72.60;;;;;;4986922;28;95639;-46
2022/06/06 01:01:42;;;;;;;1.58;1.00;;;16.60;72.70;;;;;;4965480;28;95656;-45
2022/06/06 01:04:14;;;;;;;1.30;0.85;;;16.70;72.80;;;;;;4986449;28;95804;-46
2022/06/06 01:06:46;;;;;;;1.45;0.93;;;16.70;72.80;;;;;;4966023;28;95837;-45
2022/06/06 01:09:19;;;;;;;1.00;0.80;;;16.80;72.80;;;;;;4984810;28;95958;-45
2022/06/06 01:12:01;;;;;;;1.75;0.77;;;16.80;72.90;;;;;;4984570;28;95536;-46
2022/06/06 01:15:02;;;;;;;2.92;0.93;;;16.90;72.80;;;;;;4982615;28;95460;-45
2022/06/06 01:18:05;;;;;;;2.28;1.08;;;16.90;72.70;;;;;;4977493;28;96492;-45
2022/06/06 01:21:08;;;;;;;1.25;0.90;;;17.00;72.80;;;;;;4980726;28;95904;-46
2022/06/06 01:24:04;;;;;;;0.80;0.80;;;17.00;73.40;;;;;;4984487;28;95488;-45
2022/06/06 01:26:58;;;;;;;1.20;0.90;;;17.00;72.70;;;;;;4986279;28;95835;-45
2022/06/06 01:29:34;;;;;;;3.15;1.35;;;17.10;72.80;;;;;;4978052;28;95938;-46
2022/06/06 01:32:18;;;;;;;0.93;0.75;;;17.10;72.60;;;;;;4977846;28;96594;-46
2022/06/06 01:34:53;;;;;;;1.75;0.98;;;17.10;72.40;;;;;;4985055;28;95534;-46
2022/06/06 01:37:33;;;;;;;1.77;0.70;;;17.20;72.50;;;;;;4986128;28;96095;-44
2022/06/06 01:40:13;;;;;;;1.52;0.80;;;17.20;72.50;;;;;;4983415;28;96040;-45
2022/06/06 01:43:10;;;;;;;1.80;1.05;;;17.20;72.50;;;;;;4982995;28;96286;-46
2022/06/06 01:46:09;;;;;;;1.05;0.70;;;17.20;72.60;;;;;;4976347;28;95474;-46
2022/06/06 01:48:43;;;;;;;2.97;0.90;;;17.30;72.60;;;;;;4977664;28;96117;-45
2022/06/06 01:51:20;;;;;;;2.38;0.90;;;17.30;72.50;;;;;;4980742;28;96760;-45
2022/06/06 01:53:52;;;;;;;0.80;0.80;;;17.30;72.40;;;;;;4983335;28;95848;-47
2022/06/06 01:56:28;;;;;;;1.17;0.70;;;17.30;72.60;;;;;;4986172;28;95360;-46
2022/06/06 01:58:59;;;;;;;0.52;0.40;;;17.40;72.60;;;;;;4965718;28;96249;-45
2022/06/06 02:01:31;;;;;;;4.25;1.08;;;17.40;72.30;;;;;;4978970;28;95860;-46
2022/06/06 02:04:01;;;;;;;5.43;1.27;;;17.40;71.50;;;;;;4986514;28;95733;-46
2022/06/06 02:06:39;;;;;;;6.10;1.25;;;17.40;70.80;;;;;;4986214;28;95977;-45
2022/06/06 02:09:11;;;;;;;2.50;1.30;;;17.40;70.90;;;;;;4984190;28;95802;-45
2022/06/06 02:11:42;;;;;;;3.60;1.13;;;17.40;70.80;;;;;;4985352;28;95864;-46
2022/06/06 02:14:14;;;;;;;3.15;1.30;;;17.40;70.40;;;;;;4979713;28;95910;-46
2022/06/06 02:16:45;;;;;;;2.83;1.83;;;17.30;70.50;;;;;;4977893;28;95856;-45
2022/06/06 02:19:17;;;;;;;4.00;1.30;;;17.40;70.30;;;;;;4984263;28;95723;-45
2022/06/06 02:21:50;;;;;;;2.92;1.20;;;17.40;70.00;;;;;;4985495;28;96832;-46
2022/06/06 02:24:23;;;;;;;3.50;1.27;;;17.40;69.90;;;;;;4985101;28;95823;-46
2022/06/06 02:26:55;;;;;;;3.75;1.40;;;17.40;69.60;;;;;;4982446;28;95713;-45
2022/06/06 02:29:26;;;;;;;1.75;1.20;;;17.30;69.30;;;;;;4981061;28;95966;-44
2022/06/06 02:32:02;;;;;;;1.27;0.95;;;17.30;69.20;;;;;;4977989;28;96300;-43
2022/06/06 02:34:35;;;;;;;2.60;0.88;;;17.20;68.80;;;;;;4982565;28;96198;-43
2022/06/06 02:37:07;;;;;;;2.90;1.40;;;17.20;68.90;;;;;;4983583;28;95508;-43
2022/06/06 02:39:39;;;;;;;3.65;1.30;;;17.20;69.10;;;;;;4984155;28;96095;-41
2022/06/06 02:42:16;;;;;;;2.22;0.95;;;17.20;69.30;;;;;;4983110;28;95901;-43
2022/06/06 02:44:48;;;;;;;3.58;1.10;;;17.20;69.30;;;;;;4986196;28;96021;-43
2022/06/06 02:47:19;;;;;;;4.63;1.50;;;17.20;69.40;;;;;;4981364;28;95878;-46
2022/06/06 02:49:52;;;;;;;2.55;1.08;;;17.20;69.50;;;;;;4983677;28;95400;-45
2022/06/06 02:52:23;;;;;;;;;;;17.20;69.70;;;;;;4987106;28;95875;-44
2022/06/06 02:54:56;;;;;;;2.93;1.27;;;17.20;69.70;;;;;;4979838;28;97255;-44
2022/06/06 02:57:29;;;;;;;1.55;1.17;;;17.20;69.40;;;;;;4990132;28;95854;-44
2022/06/06 03:00:02;;;;;;;4.38;1.30;;;17.20;69.20;;;;;;4985573;28;95944;-43
2022/06/06 03:02:35;;;;;;;2.92;1.27;;;17.10;69.30;;;;;;4981857;28;96021;-45
2022/06/06 03:05:08;;;;;;;2.20;0.98;;;17.10;69.30;;;;;;4984615;28;96787;-44
2022/06/06 03:07:57;;;;;;;4.60;1.08;;;17.10;69.50;;;;;;4968872;28;95752;-44
2022/06/06 03:10:35;;;;;;;1.55;1.02;;;17.00;69.70;;;;;;4984499;28;95694;-44
2022/06/06 03:13:22;;;;;;;1.75;1.00;;;17.10;69.70;;;;;;4978646;28;96076;-45
2022/06/06 03:22:30;;;;;;;2.42;1.08;;;17.10;69.70;;;;;;4974737;28;95850;-45
2022/06/06 03:25:21;;;;;;;2.70;1.20;;;17.10;69.90;;;;;;4986603;28;96081;-45
2022/06/06 03:28:08;;;;;;;2.92;1.13;;;17.10;69.90;;;;;;4983653;28;95795;-45
2022/06/06 03:31:08;;;;;;;1.92;0.80;;;17.20;69.70;;;;;;4978461;28;95531;-43
2022/06/06 03:33:58;;;;;;;4.28;1.27;;;17.20;69.90;;;;;;4982101;28;95464;-43
2022/06/06 03:36:38;;;;;;;2.95;1.20;;;17.20;69.50;;;;;;4986329;28;96049;-45
2022/06/06 03:39:32;;;;;;;2.78;1.08;;;17.20;69.50;;;;;;4983912;28;95769;-45
2022/06/06 03:42:10;;;;;;;2.67;1.40;;;17.20;69.70;;;;;;4987572;28;95926;-45
2022/06/06 03:44:59;;;;;;;3.78;1.25;;;17.20;69.70;;;;;;4988296;28;95354;-45
2022/06/06 03:47:57;;;;;;;4.60;1.23;;;17.10;69.80;;;;;;4982446;28;96029;-45
2022/06/06 03:50:57;;;;;;;2.03;1.30;;;17.10;69.90;;;;;;4986374;28;96127;-44
2022/06/06 03:53:39;;;;;;;2.20;1.13;;;17.20;70.30;;;;;;4984068;28;98269;-45
2022/06/06 03:56:37;;;;;;;3.60;1.23;;;17.30;70.50;;;;;;4985596;28;95494;-46
2022/06/06 03:59:11;;;;;;;1.55;1.13;;;17.40;70.30;;;;;;4986509;28;96510;-46
2022/06/06 04:01:47;;;;;;;3.08;0.98;;;17.50;70.30;;;;;;4982679;28;96002;-45
2022/06/06 04:04:18;;;;;;;1.30;0.90;;;17.50;70.30;;;;;;4987057;28;95895;-45
2022/06/06 04:06:52;;;;;;;1.63;1.00;;;17.60;70.40;;;;;;4988659;28;96986;-46
2022/06/06 04:09:29;;;;;;;3.13;1.20;;;17.60;70.40;;;;;;4985286;28;96040;-47
2022/06/06 04:12:07;;;;;;;1.88;1.33;;;17.70;70.50;;;;;;4967126;28;98064;-47
2022/06/06 04:15:01;;;;;;;1.10;0.90;;;17.70;70.50;;;;;;4984295;28;95380;-46
2022/06/06 04:18:07;;;;;;;1.33;0.98;;;17.80;71.20;;;;;;4980314;28;97949;-46
2022/06/06 04:21:04;;;;;;;2.75;0.90;;;17.80;70.60;;;;;;4963228;28;96807;-46
2022/06/06 04:23:53;;;;;;;1.27;0.68;;;17.80;70.10;;;;;;4982179;28;95623;-45
2022/06/06 04:27:07;;;;;;;0.85;0.50;;;17.80;70.50;;;;;;4984998;28;95876;-47
2022/06/06 04:29:39;;;;;;;1.33;0.70;;;17.80;70.30;;;;;;4985504;28;95751;-46
2022/06/06 04:32:19;;;;;;;;;;;17.90;70.50;;;;;;4980203;28;97147;-45
2022/06/06 04:35:17;;;;;;;2.33;0.82;;;17.90;70.50;;;;;;4985628;28;97312;-44
2022/06/06 04:38:13;;;;;;;1.05;0.65;;;17.90;70.60;;;;;;4984467;28;97888;-45
2022/06/06 04:41:00;;;;;;;0.70;0.70;;;17.90;70.60;;;;;;4986478;28;95540;-45
2022/06/06 04:43:47;;;;;;;2.72;1.05;;;17.90;70.40;;;;;;4984904;28;96096;-45
2022/06/06 04:46:42;;;;;;;3.65;0.82;;;17.90;70.60;;;;;;4979101;28;96248;-46
2022/06/06 04:49:16;;;;;;;2.05;0.70;;;17.90;70.70;;;;;;4984238;28;95876;-46
2022/06/06 04:51:50;;;;;;;1.42;0.68;;;18.00;70.90;;;;;;4982506;28;95802;-45
2022/06/06 04:54:25;;;;;;;0.98;0.68;;;18.00;70.60;;;;;;4980448;28;95850;-45
2022/06/06 04:57:03;;;;;;;2.25;0.73;;;18.00;70.90;;;;;;4985924;28;96130;-44
2022/06/06 04:59:37;;;;;;;2.20;1.00;;;18.10;70.80;;;;;;4983916;28;95721;-45
2022/06/06 05:02:09;;;;;;;1.05;0.50;;;18.10;71.10;;;;;;4977519;28;95919;-45
2022/06/06 05:04:41;;;;;;;0.90;0.70;;;18.10;70.90;;;;;;4967161;28;96028;-45
2022/06/06 05:07:40;;;;;;;1.33;0.80;;;18.10;71.00;;;;;;4984755;28;95708;-46
2022/06/06 05:10:46;;;;;;;1.35;0.77;;;18.10;70.20;;;;;;4984763;28;95827;-45
2022/06/06 05:13:20;;;;;;;1.42;0.50;;;18.00;68.30;;;;;;4973752;28;95547;-46
2022/06/06 05:16:13;;;;;;;2.22;0.90;;;17.90;67.80;;;;;;4962631;28;96166;-46
2022/06/06 05:18:50;;;;;;;3.85;0.68;;;17.80;67.80;;;;;;4983440;28;95778;-46
2022/06/06 05:21:47;;;;;;;1.95;0.88;;;17.80;67.70;;;;;;4964518;28;95309;-45
2022/06/06 05:24:39;;;;;;;1.42;0.88;;;17.80;63.00;;;;;;4985610;28;95746;-45
2022/06/06 05:27:40;;;;;;;1.95;1.25;;;17.70;67.30;;;;;;4981776;28;95890;-46
2022/06/06 05:30:26;;;;;;;1.42;0.82;;;17.70;67.40;;;;;;4973750;28;95678;-43
2022/06/06 05:33:08;;;;;;;1.17;0.80;;;17.60;67.20;;;;;;4979776;28;95888;-43
2022/06/06 05:36:06;;;;;;;1.95;1.10;;;17.60;67.30;;;;;;4983190;28;96109;-44
2022/06/06 05:38:48;;;;;;;1.15;0.75;;;17.60;67.40;;;;;;4986475;28;95853;-43
2022/06/06 05:41:40;;;;;;;1.40;1.00;;;17.50;67.20;;;;;;4982620;28;95770;-44
2022/06/06 05:44:40;;;;;;;2.50;1.55;;;17.50;67.20;;;;;;4982735;28;95687;-43
2022/06/06 05:47:25;;;;;;;1.50;0.95;;;17.50;67.20;;;;;;4980063;28;95707;-46
2022/06/06 05:50:15;;;;;;;2.08;1.17;;;17.50;67.20;;;;;;4985518;28;96561;-45
2022/06/06 05:53:21;;;;;;;1.70;1.23;;;17.40;67.40;;;;;;4982339;28;95600;-41
2022/06/06 05:56:31;;;;;;;2.78;1.17;;;17.40;63.30;;;;;;4983356;28;95554;-44
2022/06/06 05:59:19;;;;;;;2.95;1.40;;;17.40;67.60;;;;;;4982953;28;97703;-41
2022/06/06 06:01:58;;;;;;;2.60;1.38;;;17.40;67.70;;;;;;4975674;28;95960;-45
2022/06/06 06:05:08;;;;;;;1.67;1.27;;;17.40;67.70;;;;;;4983054;28;95659;-42
2022/06/06 06:07:59;;;;;;;1.48;1.20;;;17.40;67.90;;;;;;4983718;28;95537;-45
2022/06/06 06:11:01;;;;;;;1.80;1.08;;;17.30;67.70;;;;;;4984286;28;98128;-45
2022/06/06 06:13:55;;;;;;;1.15;0.90;;;17.30;67.60;;;;;;4983998;28;96832;-44
2022/06/06 06:16:32;;;;;;;1.52;1.02;;;17.30;67.60;;;;;;4977990;28;95862;-45
2022/06/06 06:19:17;;;;;;;1.83;1.10;;;17.30;67.60;;;;;;4987827;28;95578;-45
2022/06/06 06:21:56;;;;;;;2.47;1.27;;;17.30;67.70;;;;;;4987681;28;95564;-45
2022/06/06 06:24:38;;;;;;;1.80;1.20;;;17.30;67.60;;;;;;4984858;28;95991;-45
2022/06/06 06:27:09;;;;;;;1.35;1.10;;;17.20;67.50;;;;;;4987749;28;95972;-46
2022/06/06 06:29:43;;;;;;;;;;;17.20;67.50;;;;;;4982748;28;96483;-45
2022/06/06 06:32:19;;;;;;;1.88;1.45;;;17.20;67.20;;;;;;4973819;28;96621;-45
2022/06/06 06:35:12;;;;;;;1.20;1.00;;;17.20;67.30;;;;;;4985591;28;95969;-46
2022/06/06 06:38:13;;;;;;;1.02;0.90;;;17.20;67.50;;;;;;4988587;28;95918;-46
2022/06/06 06:41:10;;;;;;;1.55;1.23;;;17.30;64.10;;;;;;4985563;28;95654;-46
2022/06/06 06:44:14;;;;;;;2.47;1.08;;;17.30;68.10;;;;;;4987464;28;96020;-45
2022/06/06 06:46:49;;;;;;;1.40;1.10;;;17.30;68.30;;;;;;4971568;28;96016;-45
2022/06/06 06:49:46;;;;;;;0.80;0.80;;;17.30;68.50;;;;;;4963805;28;96513;-45
2022/06/06 06:52:48;;;;;;;2.05;0.80;;;17.40;68.60;;;;;;4966275;28;95602;-45
2022/06/06 06:56:01;;;;;;;1.30;0.93;;;17.40;68.90;;;;;;4966620;28;95526;-46
2022/06/06 06:58:51;;;;;;;2.05;1.00;;;17.50;69.10;;;;;;4946980;28;96310;-46
2022/06/06 07:01:30;;;;;;;2.17;0.90;;;17.50;69.20;;;;;;4958910;28;95842;-45
2022/06/06 07:10:48;;;;;;;0.60;0.60;;;17.50;69.50;;;;;;4959277;28;96219;-45
2022/06/06 07:13:33;;;;;;;2.08;1.02;;;17.50;69.60;;;;;;4963407;28;96086;-45
2022/06/06 07:16:22;;;;;;;0.93;0.77;;;17.50;69.20;;;;;;4956838;28;95639;-45
2022/06/06 07:19:18;;;;;;;1.48;0.95;;;17.50;69.40;;;;;;4967820;28;95925;-44
2022/06/06 07:21:52;;;;;;;1.85;0.82;;;17.50;69.60;;;;;;4963572;28;97535;-44
2022/06/06 07:24:23;;;;;;;2.28;1.05;;;17.60;65.00;;;;;;4959813;28;95924;-42
2022/06/06 07:26:59;;;;;;;2.57;1.30;;;17.60;69.10;;;;;;4959099;28;95513;-44
2022/06/06 07:29:32;;;;;;;2.50;1.40;;;17.50;68.30;;;;;;4960914;28;95945;-43
2022/06/06 07:32:09;;;;;;;1.60;0.77;;;17.50;68.50;;;;;;4957463;28;97562;-41
2022/06/06 07:34:50;;;;;;;3.05;1.15;;;17.50;68.60;;;;;;4963962;28;95967;-44
2022/06/06 07:37:25;;;;;;;2.05;1.10;;;17.50;68.60;;;;;;4965126;28;95681;-44
2022/06/06 07:40:00;;;;;;;1.02;0.98;;;17.60;68.50;;;;;;4958858;28;95588;-44
2022/06/06 07:42:44;;;;;;;1.88;1.08;;;17.50;68.30;;;;;;4962349;28;96417;-44
2022/06/06 07:45:30;;;;;;;1.85;1.05;;;17.50;68.30;;;;;;4961662;28;96130;-45
2022/06/06 07:48:14;;;;;;;2.08;1.58;;;17.50;68.20;;;;;;4964624;28;96016;-44
2022/06/06 07:51:08;;;;;;;4.50;2.13;;;17.60;68.30;;;;;;4964054;28;95783;-44
2022/06/06 07:53:54;;;;;;;2.67;2.20;;;17.60;68.30;;;;;;4961270;28;96418;-44
2022/06/06 07:56:45;;;;;;;2.30;1.85;;;17.60;68.20;;;;;;4970252;28;95563;-45
2022/06/06 07:59:22;;;;;;;2.22;1.70;;;17.60;68.20;;;;;;4964670;28;95692;-45
2022/06/06 08:02:16;;;;;;;2.50;1.60;;;17.70;68.00;;;;;;4957077;28;95954;-44
2022/06/06 08:04:47;;;;;;;2.88;1.65;;;17.70;68.00;;;;;;4966668;28;96101;-46
2022/06/06 08:07:19;;;;;;;3.85;2.10;;;17.70;68.20;;;;;;4966453;28;96014;-45
2022/06/06 08:10:14;;;;;;;2.78;1.90;;;17.70;68.10;;;;;;4967609;28;95864;-45
2022/06/06 08:13:27;;;;;;;2.92;1.83;;;17.60;68.30;;;;;;4967216;28;95458;-45
2022/06/06 08:16:33;;;;;;;2.20;1.98;;;17.60;68.40;;;;;;4960496;28;96032;-44
2022/06/06 08:19:17;;;;;;;4.07;2.30;;;17.60;68.50;;;;;;4964927;28;96180;-43
2022/06/06 08:21:51;;;;;;;4.78;3.30;;;17.60;68.80;;;;;;4966404;28;96042;-44
2022/06/06 08:24:43;;;;;;;6.82;3.35;;;17.60;69.10;;;;;;4966863;28;95961;-44
2022/06/06 08:27:28;;;;;;;5.68;4.40;;;17.60;69.20;;;;;;4963527;28;96413;-44
2022/06/06 08:30:01;;;;;;;9.90;6.95;;;17.60;69.40;;;;;;4967200;28;95691;-44
2022/06/06 08:32:35;;;;;;;15.80;9.63;;;17.60;69.60;;;;;;4963362;28;95662;-44
2022/06/06 08:35:06;;;;;;;20.38;13.85;;;17.50;69.70;;;;;;4960833;28;97668;-44
2022/06/06 08:38:14;;;;;;;30.33;18.58;;;17.50;69.80;;;;;;4963348;28;96522;-44
2022/06/06 08:41:18;;;;;;;36.38;23.17;;;17.50;69.80;;;;;;4964809;28;95357;-43
2022/06/06 08:44:02;;;;;;;44.30;27.88;;;17.50;69.90;;;;;;4957300;28;95991;-44
2022/06/06 08:46:45;;;;;;;50.92;31.50;;;17.50;70.10;;;;;;4953256;28;95906;-44
2022/06/06 08:52:52;;;;;;;61.38;37.42;;;17.40;70.10;;;;;;4963957;28;95828;-44
2022/06/06 08:55:34;;;;;;;64.22;37.50;;;17.40;70.20;;;;;;4965190;28;95305;-45
2022/06/06 08:58:05;;;;;;;81.97;42.08;;;17.30;70.20;;;;;;4965375;28;95574;-44
2022/06/06 09:00:43;;;;;;;68.13;40.80;;;17.30;70.20;;;;;;4950751;28;96793;-45
2022/06/06 09:03:30;;;;;;;82.30;47.45;;;17.30;70.20;;;;;;4959219;28;95634;-44
2022/06/06 09:06:19;;;;;;;70.25;45.30;;;17.30;70.20;;;;;;4962314;28;95842;-44
2022/06/06 09:09:08;;;;;;;65.80;39.33;;;17.20;69.70;;;;;;4959188;28;95723;-44
2022/06/06 09:12:27;;;;;;;48.30;30.02;;;17.20;68.80;;;;;;4958940;28;96062;-44
2022/06/06 09:15:27;;;;;;;40.53;24.13;;;17.20;67.80;;;;;;4956237;28;95803;-44
2022/06/06 09:18:28;;;;;;;32.97;18.45;;;17.20;67.30;;;;;;4964620;28;95771;-44
2022/06/06 09:21:27;;;;;;;25.95;16.13;;;17.20;66.30;;;;;;4959509;28;95977;-44
2022/06/06 09:24:08;;;;;;;19.73;14.15;;;17.20;66.10;;;;;;4963905;28;97249;-44
2022/06/06 09:27:25;;;;;;;20.95;12.50;;;17.20;65.80;;;;;;4963415;28;95926;-44
2022/06/06 09:30:00;;;;;;;21.45;13.45;;;17.10;65.20;;;;;;4927954;28;95856;-44
2022/06/06 09:32:56;;;;;;;21.70;13.15;;;17.10;66.00;;;;;;4960230;28;95674;-44
2022/06/06 09:35:44;;;;;;;20.73;13.07;;;17.20;66.40;;;;;;4959673;28;96040;-45
2022/06/06 09:38:30;;;;;;;24.73;13.57;;;17.20;66.70;;;;;;4960470;28;98745;-45
2022/06/06 09:41:25;;;;;;;24.17;14.30;;;17.20;62.50;;;;;;4959207;28;95907;-45
2022/06/06 09:43:58;;;;;;;20.70;13.25;;;17.30;67.00;;;;;;4961696;28;95795;-45
2022/06/06 09:46:44;;;;;;;18.55;13.00;;;17.30;67.10;;;;;;4960587;28;98425;-45
2022/06/06 09:49:42;;;;;;;23.75;13.65;;;17.40;67.40;;;;;;4965334;28;95742;-45
2022/06/06 09:52:32;;;;;;;23.52;13.35;;;17.40;67.60;;;;;;4965721;28;96033;-45
2022/06/06 09:59:04;;;;;;;21.00;12.13;;;17.40;68.10;;;;;;4965392;28;96801;-45
2022/06/06 10:02:05;;;;;;;22.50;13.98;;;17.40;68.20;;;;;;4956618;28;96491;-45
2022/06/06 10:05:12;;;;;;;19.92;12.52;;;17.40;68.30;;;;;;4957734;28;97199;-44
2022/06/06 10:08:20;;;;;;;17.33;11.00;;;17.40;68.50;;;;;;4961393;28;95833;-47
2022/06/06 10:11:12;;;;;;;16.92;10.57;;;17.30;68.60;;;;;;4959478;28;96077;-44
2022/06/06 10:14:08;;;;;;;17.65;11.43;;;17.30;68.80;;;;;;4961771;28;96028;-44
2022/06/06 10:16:57;;;;;;;18.30;10.80;;;17.20;68.80;;;;;;4947550;28;96131;-44
2022/06/06 10:20:07;;;;;;;19.80;12.20;;;17.20;68.90;;;;;;4984632;28;95677;-44
2022/06/06 10:23:00;;;;;;;17.38;11.43;;;17.30;69.00;;;;;;4983625;28;96019;-45
2022/06/06 10:25:41;;;;;;;17.27;11.30;;;17.20;68.90;;;;;;4981122;28;96157;-43
2022/06/06 10:28:42;;;;;;;17.45;11.88;;;17.20;68.90;;;;;;4980978;28;95923;-43
2022/06/06 10:31:32;;;;;;;14.98;9.60;;;17.30;69.10;;;;;;4975785;28;97798;-44
2022/06/06 10:34:05;;;;;;;16.95;10.07;;;17.20;68.90;;;;;;4981907;28;96116;-44
2022/06/06 10:37:39;;;;;;;16.45;10.38;;;17.20;68.90;;;;;;4982638;28;96144;-44
2022/06/06 10:40:31;;;;;;;14.48;9.38;;;17.20;68.90;;;;;;4911754;28;98504;-45
2022/06/06 10:43:12;;;;;;;14.77;9.15;;;17.20;69.20;;;;;;4912167;28;97083;-44
2022/06/06 10:46:14;;;;;;;11.95;8.88;;;17.20;69.00;;;;;;4905890;28;96276;-44
2022/06/06 10:48:50;;;;;;;15.32;9.27;;;17.20;69.00;;;;;;4912693;28;96214;-44
2022/06/06 10:51:59;;;;;;;15.75;8.82;;;17.10;69.10;;;;;;4919801;28;95644;-44
2022/06/06 10:54:52;;;;;;;15.05;9.13;;;17.10;64.80;;;;;;4912081;28;95527;-46
2022/06/06 10:57:52;;;;;;;19.73;8.83;;;17.10;69.50;;;;;;4911541;28;96113;-46
2022/06/06 11:00:38;;;;;;;14.52;9.38;;;17.10;69.60;;;;;;4886711;28;96451;-45
2022/06/06 11:03:37;;;;;;;13.52;8.88;;;17.20;69.50;;;;;;4917808;28;96023;-45
2022/06/06 11:06:26;;;;;;;14.40;9.48;;;17.10;69.40;;;;;;4922970;28;95940;-44
2022/06/06 11:09:16;;;;;;;12.77;7.85;;;17.10;69.40;;;;;;4923132;28;96084;-44
2022/06/06 11:11:56;;;;;;;11.23;7.60;;;17.10;69.40;;;;;;4972008;28;95781;-44
2022/06/06 11:14:40;;;;;;;11.98;7.97;;;17.10;69.50;;;;;;4982190;28;95514;-44
2022/06/06 11:17:41;;;;;;;11.95;7.88;;;17.00;70.00;;;;;;4978131;28;98772;-44
2022/06/06 11:20:13;;;;;;;11.50;8.48;;;17.00;69.40;;;;;;4984099;28;96271;-44
2022/06/06 11:22:45;;;;;;;9.85;7.05;;;17.00;69.30;;;;;;4981909;28;95551;-44
2022/06/06 11:25:20;;;;;;;10.80;8.27;;;17.00;69.30;;;;;;4984241;28;95935;-44
2022/06/06 11:27:51;;;;;;;11.18;8.35;;;17.00;69.40;;;;;;4984120;28;96174;-44
2022/06/06 11:30:45;;;;;;;11.90;7.68;;;16.90;69.40;;;;;;4973538;28;96585;-44
2022/06/06 11:33:35;;;;;;;11.90;8.63;;;16.90;69.40;;;;;;4983998;28;104806;-44
2022/06/06 11:36:39;;;;;;;10.65;7.32;;;16.90;69.40;;;;;;4985135;28;95848;-44
2022/06/06 11:39:52;;;;;;;10.27;7.03;;;16.90;69.40;;;;;;4985706;28;95990;-43
2022/06/06 11:42:36;;;;;;;9.85;6.20;;;16.90;69.40;;;;;;4986436;28;96694;-43
2022/06/06 11:45:21;;;;;;;11.00;6.95;;;16.80;69.40;;;;;;4988299;28;96127;-46
2022/06/06 11:48:17;;;;;;;9.60;6.60;;;16.80;69.40;;;;;;4985149;28;95930;-44
2022/06/06 11:51:00;;;;;;;8.90;6.55;;;16.80;69.50;;;;;;4985419;28;96579;-44
2022/06/06 11:53:52;;;;;;;11.85;6.10;;;16.70;69.60;;;;;;4987928;28;96177;-44
2022/06/06 11:56:47;;;;;;;9.10;6.25;;;16.80;69.90;;;;;;4985000;28;95774;-44
2022/06/06 11:59:22;;;;;;;8.95;6.13;;;16.70;70.00;;;;;;4985128;28;96232;-44
2022/06/06 12:02:25;;;;;;;10.13;6.35;;;16.80;70.00;;;;;;4977915;28;95994;-44
2022/06/06 12:05:16;;;;;;;9.77;5.63;;;16.80;70.00;;;;;;4985195;28;96576;-44
2022/06/06 12:08:18;;;;;;;9.68;5.40;;;16.80;69.90;;;;;;4985917;28;95937;-44
2022/06/06 12:11:21;;;;;;;9.98;6.82;;;16.80;69.80;;;;;;4987498;28;95808;-44
2022/06/06 12:14:10;;;;;;;11.40;6.97;;;16.80;69.80;;;;;;4985541;28;96317;-44
2022/06/06 12:16:54;;;;;;;11.05;6.35;;;16.80;69.50;;;;;;4976195;28;97053;-44
2022/06/06 12:19:50;;;;;;;13.50;7.22;;;16.80;69.70;;;;;;4984823;28;95973;-44
2022/06/06 12:22:39;;;;;;;13.13;7.65;;;16.80;70.00;;;;;;4980555;28;97870;-44
2022/06/06 12:25:12;;;;;;;;;;;16.80;69.80;;;;;;4982399;28;97899;-44
2022/06/06 12:28:19;;;;;;;16.00;7.07;;;16.80;69.60;;;;;;4983935;28;95833;-44
2022/06/06 12:31:21;;;;;;;10.40;6.25;;;16.80;69.50;;;;;;4974208;28;95979;-44
2022/06/06 12:34:08;;;;;;;11.80;6.85;;;16.70;69.40;;;;;;4980014;28;95770;-44
2022/06/06 12:36:51;;;;;;;15.48;6.97;;;16.60;69.40;;;;;;4984137;28;95984;-48
2022/06/06 12:39:57;;;;;;;11.48;6.03;;;16.60;69.30;;;;;;4978419;28;95897;-44
2022/06/06 12:42:52;;;;;;;12.63;6.63;;;16.60;69.30;;;;;;4976335;28;96546;-44
2022/06/06 12:45:41;;;;;;;10.60;6.25;;;16.50;69.20;;;;;;4977246;28;95744;-44
2022/06/06 12:48:38;;;;;;;9.25;5.70;;;16.50;69.20;;;;;;4980780;28;96053;-44
2022/06/06 12:51:30;;;;;;;10.13;5.53;;;16.50;69.20;;;;;;4981524;28;96064;-45
2022/06/06 12:54:04;;;;;;;10.23;5.85;;;16.50;69.20;;;;;;4980135;28;98759;-45
2022/06/06 12:57:02;;;;;;;9.93;5.82;;;16.50;69.20;;;;;;4980684;28;95796;-46
2022/06/06 13:00:05;;;;;;;8.35;5.10;;;16.50;69.30;;;;;;4986076;28;96147;-45
2022/06/06 13:02:45;;;;;;;10.27;5.25;;;16.40;69.50;;;;;;4981592;28;96481;-45
2022/06/06 13:05:40;;;;;;;9.73;5.38;;;16.50;70.10;;;;;;4985390;28;95799;-47
2022/06/06 13:08:29;;;;;;;9.38;5.15;;;16.50;70.50;;;;;;4986266;28;95678;-45
2022/06/06 13:11:21;;;;;;;6.63;4.82;;;16.60;70.50;;;;;;4971777;28;96072;-45
2022/06/06 13:14:14;;;;;;;8.25;4.38;;;16.60;70.30;;;;;;4983013;28;96105;-46
2022/06/06 13:16:44;;;;;;;7.45;4.53;;;16.60;70.30;;;;;;4971262;28;98298;-43
2022/06/06 13:19:21;;;;;;;5.73;3.60;;;16.60;70.20;;;;;;4981878;28;95870;-45
2022/06/06 13:22:05;;;;;;;7.22;4.30;;;16.60;70.20;;;;;;4984525;28;96579;-45
2022/06/06 13:24:43;;;;;;;5.72;3.50;;;16.70;70.20;;;;;;4981435;28;95846;-46
2022/06/06 13:27:24;;;;;;;5.78;3.50;;;16.80;69.90;;;;;;4978528;28;95992;-45
2022/06/06 13:29:55;;;;;;;5.03;3.13;;;17.00;69.80;;;;;;4981565;28;95903;-46
2022/06/06 13:32:49;;;;;;;4.55;3.22;;;17.00;69.80;;;;;;4975849;28;95340;-46
2022/06/06 13:35:52;;;;;;;8.00;3.70;;;17.10;69.50;;;;;;4979861;28;96221;-46
2022/06/06 13:38:43;;;;;;;4.32;3.08;;;17.20;69.00;;;;;;4971073;28;96039;-46
2022/06/06 13:41:20;;;;;;;3.78;2.70;;;17.40;68.70;;;;;;4986471;28;95305;-45
2022/06/06 13:44:24;;;;;;;3.75;2.40;;;17.40;68.60;;;;;;4986120;28;95913;-43
2022/06/06 13:47:18;;;;;;;4.82;2.97;;;17.50;68.50;;;;;;4978879;28;98482;-45
2022/06/06 13:50:18;;;;;;;3.92;2.50;;;17.50;68.50;;;;;;4985322;28;96322;-45
2022/06/06 13:53:13;;;;;;;3.65;2.55;;;17.60;68.50;;;;;;4982570;28;95832;-45
2022/06/06 13:55:45;;;;;;;4.40;2.65;;;17.70;68.50;;;;;;4986840;28;95444;-45
2022/06/06 13:58:36;;;;;;;;;;;17.70;68.40;;;;;;4986159;28;96920;-45
2022/06/06 14:01:27;;;;;;;2.23;1.53;;;17.70;68.40;;;;;;4980856;28;95769;-45
2022/06/06 14:04:20;;;;;;;2.33;1.90;;;17.80;64.30;;;;;;4982053;28;95926;-45
2022/06/06 14:07:02;;;;;;;3.10;2.10;;;17.80;68.40;;;;;;4985982;28;96120;-46
2022/06/06 14:09:47;;;;;;;2.08;1.80;;;17.90;68.50;;;;;;4981731;28;96335;-45
2022/06/06 14:12:41;;;;;;;2.63;1.83;;;17.80;68.40;;;;;;4985095;28;95894;-45
2022/06/06 14:15:17;;;;;;;3.00;2.00;;;17.90;68.50;;;;;;4980206;28;95819;-45
2022/06/06 14:18:03;;;;;;;2.33;1.80;;;17.90;68.50;;;;;;4984809;28;95549;-45
2022/06/06 14:21:00;;;;;;;2.97;1.50;;;18.00;68.60;;;;;;4985960;28;95835;-45
2022/06/06 14:23:35;;;;;;;1.83;1.73;;;18.00;68.70;;;;;;4985588;28;95941;-46
2022/06/06 14:26:13;;;;;;;2.22;1.92;;;18.10;68.60;;;;;;4984939;28;95970;-46
2022/06/06 14:28:48;;;;;;;1.80;1.50;;;18.10;68.60;;;;;;4985190;28;98052;-46
2022/06/06 14:31:40;;;;;;;1.23;1.13;;;18.10;68.70;;;;;;4978766;28;95587;-46
2022/06/06 14:34:40;;;;;;;1.45;1.35;;;18.10;64.60;;;;;;4985581;28;96064;-46
2022/06/06 14:37:18;;;;;;;1.65;1.50;;;18.20;68.70;;;;;;4976950;28;96160;-45
2022/06/06 14:39:53;;;;;;;1.48;1.30;;;18.20;68.70;;;;;;4986991;28;96517;-46
2022/06/06 14:42:51;;;;;;;1.88;1.70;;;18.20;68.70;;;;;;4987741;28;95893;-46